sensor_id;sensor_type;location;lat;lon;timestamp;pressure;altitude;pressure_sealevel;temperature;humidity
28267;BME280;15525;45.568;5.448;2023-02-22T00:00:24;98066.13;;;10.87;58.71
28267;BME280;15525;45.568;5.448;2023-02-22T00:03:12;98079.25;;;10.93;58.47
28267;BME280;15525;45.568;5.448;2023-02-22T00:05:43;98059.16;;;10.86;57.89
28267;BME280;15525;45.568;5.448;2023-02-22T00:08:12;98076.84;;;10.92;58.28
28267;BME280;15525;45.568;5.448;2023-02-22T00:10:37;98049.00;;;10.73;57.99
28267;BME280;15525;45.568;5.448;2023-02-22T00:13:04;98077.91;;;10.91;58.58
28267;BME280;15525;45.568;5.448;2023-02-22T00:15:30;98065.56;;;10.90;58.06
28267;BME280;15525;45.568;5.448;2023-02-22T00:17:56;98075.22;;;10.86;58.52
28267;BME280;15525;45.568;5.448;2023-02-22T00:20:22;98084.88;;;10.92;58.21
28267;BME280;15525;45.568;5.448;2023-02-22T00:22:48;98059.72;;;10.73;58.48
28267;BME280;15525;45.568;5.448;2023-02-22T00:25:17;98014.75;;;10.35;58.21
28267;BME280;15525;45.568;5.448;2023-02-22T00:27:44;98068.81;;;10.62;58.60
28267;BME280;15525;45.568;5.448;2023-02-22T00:30:14;98071.47;;;10.67;58.92
28267;BME280;15525;45.568;5.448;2023-02-22T00:32:45;98048.22;;;10.47;58.58
28267;BME280;15525;45.568;5.448;2023-02-22T00:35:12;98055.44;;;10.42;58.42
28267;BME280;15525;45.568;5.448;2023-02-22T00:37:38;98046.59;;;10.31;58.51
28267;BME280;15525;45.568;5.448;2023-02-22T00:40:10;98056.53;;;10.46;59.01
28267;BME280;15525;45.568;5.448;2023-02-22T00:42:36;98062.66;;;10.41;59.00
28267;BME280;15525;45.568;5.448;2023-02-22T00:45:02;98063.72;;;10.35;58.87
28267;BME280;15525;45.568;5.448;2023-02-22T00:47:27;98062.91;;;10.30;58.80
28267;BME280;15525;45.568;5.448;2023-02-22T00:49:54;98057.88;;;10.38;58.39
28267;BME280;15525;45.568;5.448;2023-02-22T00:52:19;98055.72;;;10.30;58.70
28267;BME280;15525;45.568;5.448;2023-02-22T00:54:45;98078.44;;;10.38;59.14
28267;BME280;15525;45.568;5.448;2023-02-22T00:57:11;98051.41;;;10.09;59.44
28267;BME280;15525;45.568;5.448;2023-02-22T00:59:37;98056.50;;;10.16;59.39
28267;BME280;15525;45.568;5.448;2023-02-22T01:02:02;98044.72;;;10.12;59.36
28267;BME280;15525;45.568;5.448;2023-02-22T01:04:27;98074.97;;;10.32;59.23
28267;BME280;15525;45.568;5.448;2023-02-22T01:06:53;98053.81;;;10.21;58.76
28267;BME280;15525;45.568;5.448;2023-02-22T01:09:19;98049.03;;;10.23;58.96
28267;BME280;15525;45.568;5.448;2023-02-22T01:11:46;98066.16;;;10.27;58.84
28267;BME280;15525;45.568;5.448;2023-02-22T01:14:11;98053.28;;;10.19;59.07
28267;BME280;15525;45.568;5.448;2023-02-22T01:16:37;98063.72;;;10.25;59.40
28267;BME280;15525;45.568;5.448;2023-02-22T01:19:02;98055.16;;;10.18;58.97
28267;BME280;15525;45.568;5.448;2023-02-22T01:21:28;98060.25;;;10.15;59.01
28267;BME280;15525;45.568;5.448;2023-02-22T01:23:53;98042.59;;;10.09;58.83
28267;BME280;15525;45.568;5.448;2023-02-22T01:26:19;98073.34;;;10.26;58.76
28267;BME280;15525;45.568;5.448;2023-02-22T01:28:45;98059.72;;;10.23;59.03
28267;BME280;15525;45.568;5.448;2023-02-22T01:31:10;98061.84;;;10.16;59.35
28267;BME280;15525;45.568;5.448;2023-02-22T01:33:37;98059.72;;;10.18;58.95
28267;BME280;15525;45.568;5.448;2023-02-22T01:36:03;98060.50;;;10.23;59.12
28267;BME280;15525;45.568;5.448;2023-02-22T01:38:36;98040.72;;;10.19;58.71
28267;BME280;15525;45.568;5.448;2023-02-22T01:41:03;98052.22;;;10.20;58.67
28267;BME280;15525;45.568;5.448;2023-02-22T01:43:31;98032.16;;;10.12;59.08
28267;BME280;15525;45.568;5.448;2023-02-22T01:46:05;98051.16;;;10.21;59.32
28267;BME280;15525;45.568;5.448;2023-02-22T01:48:42;98043.94;;;10.21;59.01
28267;BME280;15525;45.568;5.448;2023-02-22T01:51:18;98057.31;;;10.31;58.97
28267;BME280;15525;45.568;5.448;2023-02-22T01:54:06;98057.31;;;10.26;58.92
28267;BME280;15525;45.568;5.448;2023-02-22T01:56:35;98035.09;;;10.21;58.68
28267;BME280;15525;45.568;5.448;2023-02-22T01:59:06;98061.31;;;10.29;58.62
28267;BME280;15525;45.568;5.448;2023-02-22T02:01:34;98060.50;;;10.08;58.84
28267;BME280;15525;45.568;5.448;2023-02-22T02:04:04;98030.78;;;9.95;58.99
28267;BME280;15525;45.568;5.448;2023-02-22T02:06:32;98047.69;;;10.15;58.59
28267;BME280;15525;45.568;5.448;2023-02-22T02:12:13;98046.25;;;9.88;59.94
28267;BME280;15525;45.568;5.448;2023-02-22T02:14:40;98040.91;;;9.93;59.08
28267;BME280;15525;45.568;5.448;2023-02-22T02:17:07;98016.84;;;9.88;59.01
28267;BME280;15525;45.568;5.448;2023-02-22T02:19:44;98040.13;;;9.97;59.49
28267;BME280;15525;45.568;5.448;2023-02-22T02:22:29;98050.78;;;9.82;59.86
28267;BME280;15525;45.568;5.448;2023-02-22T02:33:39;98043.31;;;9.89;59.02
28267;BME280;15525;45.568;5.448;2023-02-22T02:36:19;98030.75;;;9.90;59.39
28267;BME280;15525;45.568;5.448;2023-02-22T02:38:54;98044.09;;;9.90;59.44
28267;BME280;15525;45.568;5.448;2023-02-22T02:41:26;98014.41;;;9.76;59.63
28267;BME280;15525;45.568;5.448;2023-02-22T02:44:01;98030.47;;;9.91;59.67
28267;BME280;15525;45.568;5.448;2023-02-22T02:46:46;98039.31;;;9.87;59.60
28267;BME280;15525;45.568;5.448;2023-02-22T02:49:18;98022.19;;;9.88;59.62
28267;BME280;15525;45.568;5.448;2023-02-22T02:51:49;98025.38;;;9.85;59.56
28267;BME280;15525;45.568;5.448;2023-02-22T02:54:18;97990.63;;;9.70;59.94
28267;BME280;15525;45.568;5.448;2023-02-22T02:56:45;98024.28;;;9.76;59.48
28267;BME280;15525;45.568;5.448;2023-02-22T02:59:32;98022.69;;;9.70;60.92
28267;BME280;15525;45.568;5.448;2023-02-22T03:12:37;98026.97;;;9.76;60.14
28267;BME280;15525;45.568;5.448;2023-02-22T03:15:18;98024.03;;;9.77;60.09
28267;BME280;15525;45.568;5.448;2023-02-22T03:17:52;98018.19;;;9.80;59.82
28267;BME280;15525;45.568;5.448;2023-02-22T03:20:21;98023.78;;;9.79;59.42
28267;BME280;15525;45.568;5.448;2023-02-22T03:23:05;97984.44;;;9.59;59.72
28267;BME280;15525;45.568;5.448;2023-02-22T03:25:39;98009.31;;;9.70;59.96
28267;BME280;15525;45.568;5.448;2023-02-22T03:28:09;98002.63;;;9.57;59.94
28267;BME280;15525;45.568;5.448;2023-02-22T03:30:42;98013.56;;;9.61;60.08
28267;BME280;15525;45.568;5.448;2023-02-22T03:33:14;97995.13;;;9.59;60.33
28267;BME280;15525;45.568;5.448;2023-02-22T03:35:47;98013.56;;;9.56;60.83
28267;BME280;15525;45.568;5.448;2023-02-22T03:38:15;98016.50;;;9.59;60.23
28267;BME280;15525;45.568;5.448;2023-02-22T03:40:47;98009.81;;;9.57;60.32
28267;BME280;15525;45.568;5.448;2023-02-22T03:43:18;98013.81;;;9.54;60.78
28267;BME280;15525;45.568;5.448;2023-02-22T03:45:47;98006.88;;;9.53;60.25
28267;BME280;15525;45.568;5.448;2023-02-22T03:50:40;98018.66;;;9.62;60.48
28267;BME280;15525;45.568;5.448;2023-02-22T03:53:05;98003.69;;;9.51;60.77
28267;BME280;15525;45.568;5.448;2023-02-22T03:55:32;98012.50;;;9.67;60.23
28267;BME280;15525;45.568;5.448;2023-02-22T03:58:00;98023.50;;;9.70;60.40
28267;BME280;15525;45.568;5.448;2023-02-22T04:00:29;98016.00;;;9.67;60.80
28267;BME280;15525;45.568;5.448;2023-02-22T04:02:56;98005.81;;;9.59;60.54
28267;BME280;15525;45.568;5.448;2023-02-22T04:05:21;98011.47;;;9.63;60.95
28267;BME280;15525;45.568;5.448;2023-02-22T04:07:50;97994.03;;;9.45;60.88
28267;BME280;15525;45.568;5.448;2023-02-22T04:10:16;98007.16;;;9.62;60.52
28267;BME280;15525;45.568;5.448;2023-02-22T04:12:42;98009.59;;;9.68;60.00
28267;BME280;15525;45.568;5.448;2023-02-22T04:15:10;98017.31;;;9.60;60.41
28267;BME280;15525;45.568;5.448;2023-02-22T04:17:36;98007.63;;;9.34;60.77
28267;BME280;15525;45.568;5.448;2023-02-22T04:20:02;98008.66;;;9.28;60.83
28267;BME280;15525;45.568;5.448;2023-02-22T04:22:28;98012.69;;;9.35;61.20
28267;BME280;15525;45.568;5.448;2023-02-22T04:24:53;98018.56;;;9.37;60.54
28267;BME280;15525;45.568;5.448;2023-02-22T04:27:19;98022.06;;;9.43;60.72
28267;BME280;15525;45.568;5.448;2023-02-22T04:29:44;97993.41;;;9.18;60.51
28267;BME280;15525;45.568;5.448;2023-02-22T04:32:10;97974.94;;;9.07;61.14
28267;BME280;15525;45.568;5.448;2023-02-22T04:34:35;97977.06;;;9.05;60.98
28267;BME280;15525;45.568;5.448;2023-02-22T04:37:01;98004.66;;;9.25;60.25
28267;BME280;15525;45.568;5.448;2023-02-22T04:39:26;97995.78;;;9.10;60.84
28267;BME280;15525;45.568;5.448;2023-02-22T04:41:51;97947.56;;;8.80;61.22
28267;BME280;15525;45.568;5.448;2023-02-22T04:44:17;98001.66;;;9.17;60.61
28267;BME280;15525;45.568;5.448;2023-02-22T04:46:42;98007.59;;;9.29;60.59
28267;BME280;15525;45.568;5.448;2023-02-22T04:49:08;98014.56;;;9.35;60.36
28267;BME280;15525;45.568;5.448;2023-02-22T04:51:34;97984.81;;;9.06;60.59
28267;BME280;15525;45.568;5.448;2023-02-22T04:54:01;97986.94;;;9.09;61.13
28267;BME280;15525;45.568;5.448;2023-02-22T04:56:27;98025.25;;;9.35;60.84
28267;BME280;15525;45.568;5.448;2023-02-22T04:58:52;98003.31;;;9.28;61.27
28267;BME280;15525;45.568;5.448;2023-02-22T05:01:18;97996.38;;;9.22;60.48
28267;BME280;15525;45.568;5.448;2023-02-22T05:03:43;98009.19;;;9.30;60.35
28267;BME280;15525;45.568;5.448;2023-02-22T05:06:09;98009.22;;;9.35;60.56
28267;BME280;15525;45.568;5.448;2023-02-22T05:08:36;97974.44;;;9.20;60.42
28267;BME280;15525;45.568;5.448;2023-02-22T05:11:02;97998.25;;;9.26;60.43
28267;BME280;15525;45.568;5.448;2023-02-22T05:13:27;98007.09;;;9.32;60.83
28267;BME280;15525;45.568;5.448;2023-02-22T05:15:53;98011.31;;;9.23;60.99
28267;BME280;15525;45.568;5.448;2023-02-22T05:18:18;97995.72;;;9.00;60.90
28267;BME280;15525;45.568;5.448;2023-02-22T05:20:44;98026.00;;;9.20;61.18
28267;BME280;15525;45.568;5.448;2023-02-22T05:23:09;98022.53;;;9.25;61.14
28267;BME280;15525;45.568;5.448;2023-02-22T05:25:35;98002.72;;;9.16;60.67
28267;BME280;15525;45.568;5.448;2023-02-22T05:28:03;98025.47;;;9.23;61.10
28267;BME280;15525;45.568;5.448;2023-02-22T05:30:32;97978.59;;;8.91;60.74
28267;BME280;15525;45.568;5.448;2023-02-22T05:32:58;98028.38;;;9.17;60.75
28267;BME280;15525;45.568;5.448;2023-02-22T05:35:25;98017.16;;;9.20;61.22
28267;BME280;15525;45.568;5.448;2023-02-22T05:37:51;98028.94;;;9.24;61.16
28267;BME280;15525;45.568;5.448;2023-02-22T05:40:21;98017.41;;;9.13;61.33
28267;BME280;15525;45.568;5.448;2023-02-22T05:42:48;98028.94;;;9.24;60.67
28267;BME280;15525;45.568;5.448;2023-02-22T05:45:15;98010.19;;;9.09;61.53
28267;BME280;15525;45.568;5.448;2023-02-22T05:47:42;98005.59;;;8.99;61.47
28267;BME280;15525;45.568;5.448;2023-02-22T05:50:08;98007.47;;;8.99;61.01
28267;BME280;15525;45.568;5.448;2023-02-22T05:52:34;98020.91;;;9.19;61.65
28267;BME280;15525;45.568;5.448;2023-02-22T05:54:59;98006.50;;;9.20;60.81
28267;BME280;15525;45.568;5.448;2023-02-22T05:57:25;98011.28;;;9.13;60.87
28267;BME280;15525;45.568;5.448;2023-02-22T05:59:50;97996.06;;;9.13;61.29
28267;BME280;15525;45.568;5.448;2023-02-22T06:02:16;98005.72;;;9.19;60.84
28267;BME280;15525;45.568;5.448;2023-02-22T06:04:45;98025.53;;;9.33;61.24
28267;BME280;15525;45.568;5.448;2023-02-22T06:07:12;98014.28;;;9.31;61.14
28267;BME280;15525;45.568;5.448;2023-02-22T06:09:37;98019.91;;;9.35;60.79
28267;BME280;15525;45.568;5.448;2023-02-22T06:12:03;98006.28;;;9.36;61.08
28267;BME280;15525;45.568;5.448;2023-02-22T06:14:29;98004.69;;;9.35;60.35
28267;BME280;15525;45.568;5.448;2023-02-22T06:16:55;98021.28;;;9.47;60.51
28267;BME280;15525;45.568;5.448;2023-02-22T06:19:20;98009.78;;;9.37;60.33
28267;BME280;15525;45.568;5.448;2023-02-22T06:21:54;98002.53;;;9.37;60.99
28267;BME280;15525;45.568;5.448;2023-02-22T06:24:20;98006.59;;;9.40;60.40
28267;BME280;15525;45.568;5.448;2023-02-22T06:26:45;98015.66;;;9.49;60.26
28267;BME280;15525;45.568;5.448;2023-02-22T06:29:11;98029.31;;;9.47;60.47
28267;BME280;15525;45.568;5.448;2023-02-22T06:31:36;98021.00;;;9.44;60.38
28267;BME280;15525;45.568;5.448;2023-02-22T06:34:03;98023.66;;;9.44;60.36
28267;BME280;15525;45.568;5.448;2023-02-22T06:36:28;97992.66;;;9.33;60.41
28267;BME280;15525;45.568;5.448;2023-02-22T06:38:57;98022.63;;;9.50;60.80
28267;BME280;15525;45.568;5.448;2023-02-22T06:41:22;98015.38;;;9.40;60.53
28267;BME280;15525;45.568;5.448;2023-02-22T06:43:48;98043.25;;;9.64;60.37
28267;BME280;15525;45.568;5.448;2023-02-22T06:46:14;97992.66;;;9.28;60.23
28267;BME280;15525;45.568;5.448;2023-02-22T06:48:39;98025.06;;;9.51;60.56
28267;BME280;15525;45.568;5.448;2023-02-22T06:51:07;98050.22;;;9.70;60.86
28267;BME280;15525;45.568;5.448;2023-02-22T06:53:33;98030.94;;;9.63;60.41
28267;BME280;15525;45.568;5.448;2023-02-22T06:55:59;98051.81;;;9.71;60.42
28267;BME280;15525;45.568;5.448;2023-02-22T06:58:25;98036.03;;;9.65;60.31
28267;BME280;15525;45.568;5.448;2023-02-22T07:00:51;98036.03;;;9.65;60.42
28267;BME280;15525;45.568;5.448;2023-02-22T07:03:17;98017.59;;;9.63;60.44
28267;BME280;15525;45.568;5.448;2023-02-22T07:05:43;98030.19;;;9.73;60.84
28267;BME280;15525;45.568;5.448;2023-02-22T07:08:09;98022.19;;;9.83;61.01
28267;BME280;15525;45.568;5.448;2023-02-22T07:10:35;98054.63;;;10.06;60.65
28267;BME280;15525;45.568;5.448;2023-02-22T07:13:01;98054.34;;;10.13;60.33
28267;BME280;15525;45.568;5.448;2023-02-22T07:15:28;98060.50;;;10.23;60.15
28267;BME280;15525;45.568;5.448;2023-02-22T07:17:55;98056.50;;;10.31;60.72
28267;BME280;15525;45.568;5.448;2023-02-22T07:20:21;98057.03;;;10.28;60.36
28267;BME280;15525;45.568;5.448;2023-02-22T07:22:49;98057.03;;;10.23;60.90
28267;BME280;15525;45.568;5.448;2023-02-22T07:25:15;98043.38;;;10.19;60.90
28267;BME280;15525;45.568;5.448;2023-02-22T07:27:41;98045.78;;;10.31;61.15
28267;BME280;15525;45.568;5.448;2023-02-22T07:30:15;98052.47;;;10.33;61.19
28267;BME280;15525;45.568;5.448;2023-02-22T07:32:42;98070.41;;;10.53;60.88
28267;BME280;15525;45.568;5.448;2023-02-22T07:35:14;98055.69;;;10.50;61.54
28267;BME280;15525;45.568;5.448;2023-02-22T07:37:39;98024.69;;;10.44;60.58
28267;BME280;15525;45.568;5.448;2023-02-22T07:40:05;98060.78;;;10.67;60.71
28267;BME280;15525;45.568;5.448;2023-02-22T07:42:30;98060.53;;;10.53;61.06
28267;BME280;15525;45.568;5.448;2023-02-22T07:44:57;98050.34;;;10.60;61.46
28267;BME280;15525;45.568;5.448;2023-02-22T07:47:22;98043.38;;;10.79;60.92
28267;BME280;15525;45.568;5.448;2023-02-22T07:49:47;98045.47;;;10.92;60.43
28267;BME280;15525;45.568;5.448;2023-02-22T07:52:13;98046.22;;;11.18;60.54
28267;BME280;15525;45.568;5.448;2023-02-22T07:54:38;98051.28;;;11.24;60.25
28267;BME280;15525;45.568;5.448;2023-02-22T07:57:04;98057.94;;;11.42;60.15
28267;BME280;15525;45.568;5.448;2023-02-22T07:59:29;98057.06;;;11.56;60.01
28267;BME280;15525;45.568;5.448;2023-02-22T08:01:55;98068.03;;;11.75;59.86
28267;BME280;15525;45.568;5.448;2023-02-22T08:04:20;98052.44;;;11.77;59.85
28267;BME280;15525;45.568;5.448;2023-02-22T08:06:45;98041.69;;;11.82;60.14
28267;BME280;15525;45.568;5.448;2023-02-22T08:09:11;98047.59;;;11.84;60.09
28267;BME280;15525;45.568;5.448;2023-02-22T08:11:36;98064.41;;;12.00;59.93
28267;BME280;15525;45.568;5.448;2023-02-22T08:14:02;98067.84;;;12.05;59.81
28267;BME280;15525;45.568;5.448;2023-02-22T08:16:27;98050.44;;;11.98;59.82
28267;BME280;15525;45.568;5.448;2023-02-22T08:18:52;98067.03;;;12.10;60.31
28267;BME280;15525;45.568;5.448;2023-02-22T08:21:18;98049.41;;;11.93;60.34
28267;BME280;15525;45.568;5.448;2023-02-22T08:23:43;98060.41;;;11.97;60.77
28267;BME280;15525;45.568;5.448;2023-02-22T08:26:10;98042.06;;;12.09;60.63
28267;BME280;15525;45.568;5.448;2023-02-22T08:28:40;98057.50;;;12.27;60.72
28267;BME280;15525;45.568;5.448;2023-02-22T08:31:05;98053.72;;;12.33;60.55
28267;BME280;15525;45.568;5.448;2023-02-22T08:33:33;98057.91;;;12.44;60.46
28267;BME280;15525;45.568;5.448;2023-02-22T08:35:59;98072.84;;;12.60;60.24
28267;BME280;15525;45.568;5.448;2023-02-22T08:38:28;98057.69;;;12.69;60.58
28267;BME280;15525;45.568;5.448;2023-02-22T08:40:54;98074.22;;;12.86;60.29
28267;BME280;15525;45.568;5.448;2023-02-22T08:43:20;98070.91;;;12.94;60.08
28267;BME280;15525;45.568;5.448;2023-02-22T08:45:46;98061.75;;;12.95;60.26
28267;BME280;15525;45.568;5.448;2023-02-22T08:48:13;98076.13;;;13.14;60.03
28267;BME280;15525;45.568;5.448;2023-02-22T08:50:39;98078.41;;;13.26;60.06
28267;BME280;15525;45.568;5.448;2023-02-22T08:53:07;98033.50;;;13.03;60.17
28267;BME280;15525;45.568;5.448;2023-02-22T08:55:36;98077.19;;;13.42;60.11
28267;BME280;15525;45.568;5.448;2023-02-22T08:58:03;98060.84;;;13.33;59.87
28267;BME280;15525;45.568;5.448;2023-02-22T09:00:31;98080.50;;;13.57;59.56
28267;BME280;15525;45.568;5.448;2023-02-22T09:03:08;98058.44;;;13.55;60.40
28267;BME280;15525;45.568;5.448;2023-02-22T09:05:34;98068.44;;;13.73;59.41
28267;BME280;15525;45.568;5.448;2023-02-22T09:08:00;98051.75;;;13.76;59.78
28267;BME280;15525;45.568;5.448;2023-02-22T09:10:28;98081.22;;;14.05;59.41
28267;BME280;15525;45.568;5.448;2023-02-22T09:12:54;98063.63;;;14.12;58.94
28267;BME280;15525;45.568;5.448;2023-02-22T09:15:21;98058.03;;;14.27;58.87
28267;BME280;15525;45.568;5.448;2023-02-22T09:17:47;98071.13;;;14.52;58.72
28267;BME280;15525;45.568;5.448;2023-02-22T09:20:13;98071.53;;;14.78;58.54
28267;BME280;15525;45.568;5.448;2023-02-22T09:22:39;98035.69;;;14.77;58.11
28267;BME280;15525;45.568;5.448;2023-02-22T09:25:05;98068.41;;;15.16;58.10
28267;BME280;15525;45.568;5.448;2023-02-22T09:27:31;98038.25;;;15.14;57.69
28267;BME280;15525;45.568;5.448;2023-02-22T09:29:57;98058.44;;;15.30;57.41
28267;BME280;15525;45.568;5.448;2023-02-22T09:32:23;98045.97;;;15.34;57.64
28267;BME280;15525;45.568;5.448;2023-02-22T09:34:52;98039.09;;;15.42;56.99
28267;BME280;15525;45.568;5.448;2023-02-22T09:37:18;98038.59;;;15.53;56.95
28267;BME280;15525;45.568;5.448;2023-02-22T09:39:44;98052.84;;;15.81;56.77
28267;BME280;15525;45.568;5.448;2023-02-22T09:42:33;98042.81;;;15.95;56.01
28267;BME280;15525;45.568;5.448;2023-02-22T09:45:21;98064.38;;;16.22;55.13
28267;BME280;15525;45.568;5.448;2023-02-22T09:47:51;98047.97;;;16.18;55.96
28267;BME280;15525;45.568;5.448;2023-02-22T09:50:25;98047.84;;;16.23;55.82
28267;BME280;15525;45.568;5.448;2023-02-22T09:53:06;98053.53;;;16.35;55.55
28267;BME280;15525;45.568;5.448;2023-02-22T09:55:45;98057.81;;;16.36;56.06
28267;BME280;15525;45.568;5.448;2023-02-22T09:58:32;98039.50;;;16.33;54.72
28267;BME280;15525;45.568;5.448;2023-02-22T10:01:31;98059.47;;;16.59;54.85
28267;BME280;15525;45.568;5.448;2023-02-22T10:04:18;98062.91;;;16.73;54.67
28267;BME280;15525;45.568;5.448;2023-02-22T10:07:21;98066.47;;;16.82;53.99
28267;BME280;15525;45.568;5.448;2023-02-22T10:09:50;98056.22;;;16.71;55.08
28267;BME280;15525;45.568;5.448;2023-02-22T10:20:32;98062.84;;;16.43;54.71
28267;BME280;15525;45.568;5.448;2023-02-22T10:25:51;98057.38;;;16.56;54.09
28267;BME280;15525;45.568;5.448;2023-02-22T10:28:23;98038.19;;;16.88;52.95
28267;BME280;15525;45.568;5.448;2023-02-22T10:30:54;98037.16;;;17.06;52.78
28267;BME280;15525;45.568;5.448;2023-02-22T10:33:27;98051.22;;;17.17;52.01
28267;BME280;15525;45.568;5.448;2023-02-22T10:35:54;98051.56;;;16.93;52.61
28267;BME280;15525;45.568;5.448;2023-02-22T10:38:25;98051.22;;;16.86;52.49
28267;BME280;15525;45.568;5.448;2023-02-22T10:41:03;98040.34;;;16.78;52.55
28267;BME280;15525;45.568;5.448;2023-02-22T10:43:40;98034.19;;;17.16;51.74
28267;BME280;15525;45.568;5.448;2023-02-22T10:46:07;98044.38;;;17.41;51.75
28267;BME280;15525;45.568;5.448;2023-02-22T10:48:38;98046.28;;;17.49;51.52
28267;BME280;15525;45.568;5.448;2023-02-22T10:51:07;98054.47;;;17.66;51.48
28267;BME280;15525;45.568;5.448;2023-02-22T10:53:34;98051.81;;;17.83;50.72
28267;BME280;15525;45.568;5.448;2023-02-22T10:56:22;98037.00;;;17.89;50.45
28267;BME280;15525;45.568;5.448;2023-02-22T10:58:50;98054.38;;;17.88;50.88
28267;BME280;15525;45.568;5.448;2023-02-22T11:01:37;98052.53;;;17.58;50.68
28267;BME280;15525;45.568;5.448;2023-02-22T11:06:41;98046.50;;;17.31;51.51
28267;BME280;15525;45.568;5.448;2023-02-22T11:09:16;98033.56;;;17.19;50.47
28267;BME280;15525;45.568;5.448;2023-02-22T11:11:46;98017.78;;;17.13;50.91
28267;BME280;15525;45.568;5.448;2023-02-22T11:14:24;98032.19;;;17.30;50.67
28267;BME280;15525;45.568;5.448;2023-02-22T11:16:53;98022.44;;;17.21;51.29
28267;BME280;15525;45.568;5.448;2023-02-22T11:19:23;98033.72;;;17.53;50.50
28267;BME280;15525;45.568;5.448;2023-02-22T11:22:11;98022.50;;;17.38;50.50
28267;BME280;15525;45.568;5.448;2023-02-22T11:24:51;98034.28;;;17.81;49.90
28267;BME280;15525;45.568;5.448;2023-02-22T11:27:40;98033.53;;;17.97;49.44
28267;BME280;15525;45.568;5.448;2023-02-22T11:30:17;98032.75;;;17.49;50.62
28267;BME280;15525;45.568;5.448;2023-02-22T11:32:47;98028.72;;;17.38;50.90
28267;BME280;15525;45.568;5.448;2023-02-22T11:35:37;98027.84;;;17.21;50.55
28267;BME280;15525;45.568;5.448;2023-02-22T11:40:36;98019.91;;;17.24;51.14
28267;BME280;15525;45.568;5.448;2023-02-22T11:43:28;98012.53;;;17.47;50.11
28267;BME280;15525;45.568;5.448;2023-02-22T11:48:29;98010.53;;;17.30;50.75
28267;BME280;15525;45.568;5.448;2023-02-22T11:57:00;97994.28;;;17.22;50.70
28267;BME280;15525;45.568;5.448;2023-02-22T11:59:37;98001.78;;;17.33;50.61
28267;BME280;15525;45.568;5.448;2023-02-22T12:08:31;97986.63;;;16.85;51.64
28267;BME280;15525;45.568;5.448;2023-02-22T12:11:13;97980.00;;;16.69;51.84
28267;BME280;15525;45.568;5.448;2023-02-22T12:14:10;97987.66;;;16.67;52.11
28267;BME280;15525;45.568;5.448;2023-02-22T12:19:31;97979.50;;;16.58;51.95
28267;BME280;15525;45.568;5.448;2023-02-22T12:22:25;97966.41;;;16.52;52.21
28267;BME280;15525;45.568;5.448;2023-02-22T12:25:17;97965.88;;;16.41;52.55
28267;BME280;15525;45.568;5.448;2023-02-22T12:27:52;97977.78;;;16.40;52.60
28267;BME280;15525;45.568;5.448;2023-02-22T12:30:23;97962.16;;;16.37;52.30
28267;BME280;15525;45.568;5.448;2023-02-22T12:32:49;97974.03;;;16.50;52.48
28267;BME280;15525;45.568;5.448;2023-02-22T12:35:20;97972.38;;;16.40;52.71
28267;BME280;15525;45.568;5.448;2023-02-22T12:43:42;97968.66;;;16.36;52.75
28267;BME280;15525;45.568;5.448;2023-02-22T12:46:11;97968.78;;;16.31;52.99
28267;BME280;15525;45.568;5.448;2023-02-22T12:49:00;97971.00;;;16.29;53.04
28267;BME280;15525;45.568;5.448;2023-02-22T12:56:53;97963.94;;;16.42;52.56
28267;BME280;15525;45.568;5.448;2023-02-22T12:59:33;97961.78;;;16.30;52.77
28267;BME280;15525;45.568;5.448;2023-02-22T13:04:48;97969.28;;;16.55;52.52
28267;BME280;15525;45.568;5.448;2023-02-22T13:08:06;97966.84;;;16.45;52.78
28267;BME280;15525;45.568;5.448;2023-02-22T13:18:32;97955.41;;;16.26;52.74
28267;BME280;15525;45.568;5.448;2023-02-22T13:21:22;97957.47;;;16.07;53.28
28267;BME280;15525;45.568;5.448;2023-02-22T13:24:01;97947.78;;;16.06;53.51
28267;BME280;15525;45.568;5.448;2023-02-22T13:26:38;97949.88;;;16.09;53.05
28267;BME280;15525;45.568;5.448;2023-02-22T13:35:27;97951.94;;;16.34;53.27
28267;BME280;15525;45.568;5.448;2023-02-22T13:44:25;97944.72;;;16.21;53.16
28267;BME280;15525;45.568;5.448;2023-02-22T13:49:41;97934.53;;;15.96;53.30
28267;BME280;15525;45.568;5.448;2023-02-22T13:52:15;97925.03;;;15.99;53.36
28267;BME280;15525;45.568;5.448;2023-02-22T13:54:45;97927.28;;;16.27;53.06
28267;BME280;15525;45.568;5.448;2023-02-22T13:57:33;97932.72;;;16.49;52.80
28267;BME280;15525;45.568;5.448;2023-02-22T14:13:14;97936.16;;;16.72;52.46
28267;BME280;15525;45.568;5.448;2023-02-22T14:23:36;97922.16;;;16.70;52.04
28267;BME280;15525;45.568;5.448;2023-02-22T14:26:38;97926.16;;;16.72;52.49
28267;BME280;15525;45.568;5.448;2023-02-22T14:39:26;97921.81;;;16.63;52.94
28267;BME280;15525;45.568;5.448;2023-02-22T14:42:13;97909.22;;;16.58;53.15
28267;BME280;15525;45.568;5.448;2023-02-22T14:47:23;97920.06;;;16.67;52.84
28267;BME280;15525;45.568;5.448;2023-02-22T14:49:55;97917.75;;;16.82;52.43
28267;BME280;15525;45.568;5.448;2023-02-22T14:52:27;97901.41;;;16.87;52.25
28267;BME280;15525;45.568;5.448;2023-02-22T14:55:05;97906.72;;;17.09;52.53
28267;BME280;15525;45.568;5.448;2023-02-22T14:57:43;97907.56;;;17.18;52.41
28267;BME280;15525;45.568;5.448;2023-02-22T15:00:19;97905.31;;;17.20;52.52
28267;BME280;15525;45.568;5.448;2023-02-22T15:02:49;97905.81;;;17.22;52.19
28267;BME280;15525;45.568;5.448;2023-02-22T15:05:18;97895.78;;;17.23;52.21
28267;BME280;15525;45.568;5.448;2023-02-22T15:08:02;97894.63;;;17.15;52.41
28267;BME280;15525;45.568;5.448;2023-02-22T15:10:30;97895.94;;;17.26;52.04
28267;BME280;15525;45.568;5.448;2023-02-22T15:13:04;97894.31;;;17.08;52.44
28267;BME280;15525;45.568;5.448;2023-02-22T15:15:35;97892.91;;;17.19;52.43
28267;BME280;15525;45.568;5.448;2023-02-22T15:18:01;97890.72;;;17.30;52.30
28267;BME280;15525;45.568;5.448;2023-02-22T15:20:29;97881.56;;;17.09;52.58
28267;BME280;15525;45.568;5.448;2023-02-22T15:22:58;97880.66;;;17.13;52.69
28267;BME280;15525;45.568;5.448;2023-02-22T15:25:27;97881.47;;;17.22;52.64
28267;BME280;15525;45.568;5.448;2023-02-22T15:27:59;97889.09;;;17.20;52.39
28267;BME280;15525;45.568;5.448;2023-02-22T15:30:28;97891.31;;;17.18;52.84